Temperatura - Umidità - Pioggia orarie dal 16-01-2021 al 24-01-2021

Intensità - Direzione vento orarie dal 16-01-2021 al 24-01-2021

Dati orari da stazione meteo dal 16-01-2021 al 24-01-2021

Nome Stazione Data Ora Temperatura [°C] Umidità [%] Pioggia [mm] Intensità vento[km/h] Direzione vento [°]
Savigliano 16-01-2021 01:00 -0.6 87.1 0 0 330
Savigliano 16-01-2021 02:00 -1 88.6 0 0 330
Savigliano 16-01-2021 03:00 -1.6 88.5 0 0.4 291
Savigliano 16-01-2021 04:00 -0.6 88.8 0 0 263
Savigliano 16-01-2021 05:00 -2.4 88.9 0 0 263
Savigliano 16-01-2021 06:00 -3.3 87.7 0 0 263
Savigliano 16-01-2021 07:00 -3.3 88.7 0 0.4 262
Savigliano 16-01-2021 08:00 -3.3 89.6 0 0 262
Savigliano 16-01-2021 09:00 -3.1 92.1 0 0 263
Savigliano 16-01-2021 10:00 -1.1 87.3 0 0 260
Savigliano 16-01-2021 11:00 1.6 81.8 0 0 254
Savigliano 16-01-2021 12:00 2.1 80.6 0 1.1 167
Savigliano 16-01-2021 13:00 1.8 78.9 0 1.8 112
Savigliano 16-01-2021 14:00 3.1 77.6 0 1.8 92
Savigliano 16-01-2021 15:00 4.2 72.2 0 2.2 99
Savigliano 16-01-2021 16:00 4.6 71.3 0 1.1 86
Savigliano 16-01-2021 17:00 4.2 71.7 0 0.4 65
Savigliano 16-01-2021 18:00 1.8 75 0 0 65
Savigliano 16-01-2021 19:00 1.6 78.1 0 0 65
Savigliano 16-01-2021 20:00 -0.7 82.4 0 0 66
Savigliano 16-01-2021 21:00 -0.4 84.2 0 0 67
Savigliano 16-01-2021 22:00 -1.1 88.1 0 0 67
Savigliano 16-01-2021 23:00 -2.5 89.1 0 0 67
Savigliano 17-01-2021 00:00 -3.3 87.5 0 0.4 122
Savigliano 17-01-2021 01:00 -3.1 88.4 0 0 136
Savigliano 17-01-2021 02:00 -3.2 88.7 0 0.4 136
Savigliano 17-01-2021 03:00 -3.3 89.2 0 1.8 156
Savigliano 17-01-2021 04:00 -3.1 89.3 0 0.7 187
Savigliano 17-01-2021 05:00 -3 89 0 0.7 166
Savigliano 17-01-2021 06:00 -4.3 88.8 0 2.2 156
Savigliano 17-01-2021 07:00 -5.6 88.2 0 2.2 165
Savigliano 17-01-2021 08:00 -5.7 87.9 0 1.1 167
Savigliano 17-01-2021 09:00 -5.4 88 0 1.8 175
Savigliano 17-01-2021 10:00 -2.5 88.1 0 1.4 153
Savigliano 17-01-2021 11:00 -0.7 83.1 0 2.5 140
Savigliano 17-01-2021 12:00 0.5 83.1 0 2.5 139
Savigliano 17-01-2021 13:00 1.8 78.3 0 3.2 97
Savigliano 17-01-2021 14:00 3.2 75 0 3.6 169
Savigliano 17-01-2021 15:00 4.3 73.4 0 2.9 215
Savigliano 17-01-2021 16:00 4.8 74.2 0 1.8 304
Savigliano 17-01-2021 17:00 2.8 78.7 0 1.4 190
Savigliano 17-01-2021 18:00 2 83.9 0 0.4 283
Savigliano 17-01-2021 19:00 0 83.5 0 0.4 255
Savigliano 17-01-2021 20:00 -0.5 87.5 0 0.4 247
Savigliano 17-01-2021 21:00 -0.8 88.8 0 0.4 211
Savigliano 17-01-2021 22:00 -2.6 88.1 0 1.8 179
Savigliano 17-01-2021 23:00 -3 87.7 0 1.1 191
Savigliano 18-01-2021 00:00 -3.2 89 0 0.7 164
Savigliano 18-01-2021 01:00 -3.1 87.8 0 0.4 288
Savigliano 18-01-2021 02:00 -3.2 89 0 0.4 265
Savigliano 18-01-2021 03:00 -3.4 88.1 0 0.4 188
Savigliano 18-01-2021 04:00 -4.2 88.8 0 0.4 187
Savigliano 18-01-2021 05:00 -4.4 91.8 0 1.8 187
Savigliano 18-01-2021 06:00 -3.1 91.8 0 0.4 215
Savigliano 18-01-2021 07:00 -4.4 88.8 0 0.4 205
Savigliano 18-01-2021 08:00 -5.7 88.3 0 1.1 173
Savigliano 18-01-2021 09:00 -5.7 87.3 0 1.1 172
Savigliano 18-01-2021 10:00 -2.6 86.4 0 1.1 170
Savigliano 18-01-2021 11:00 1.7 74.8 0 1.4 159
Savigliano 18-01-2021 12:00 2 70.9 0 2.5 122
Savigliano 18-01-2021 13:00 4.4 62.3 0 1.4 116
Savigliano 18-01-2021 14:00 6.5 58 0 1.1 128
Savigliano 18-01-2021 15:00 7.3 54.5 0 1.8 201
Savigliano 18-01-2021 16:00 6.6 67.9 0 1.4 336
Savigliano 18-01-2021 17:00 4.3 72.6 0 0.4 338
Savigliano 18-01-2021 18:00 3.6 78 0 0.4 324
Savigliano 18-01-2021 19:00 1.8 80.6 0 0 319
Savigliano 18-01-2021 20:00 0.2 84.1 0 0.4 310
Savigliano 18-01-2021 21:00 -0.5 86.1 0 1.4 204
Savigliano 18-01-2021 22:00 -2.6 82.2 0 1.8 164
Savigliano 18-01-2021 23:00 -3.4 82.7 0 2.9 164
Savigliano 19-01-2021 00:00 -3.5 82.8 0 2.9 171
Savigliano 19-01-2021 01:00 -3.3 81.2 0 0.7 194
Savigliano 19-01-2021 02:00 -3.4 82.9 0 1.8 178
Savigliano 19-01-2021 03:00 -3.3 86 0 0.4 169
Savigliano 19-01-2021 04:00 -3.4 83.5 0 1.1 175
Savigliano 19-01-2021 05:00 -3.5 82.7 0 0.7 164
Savigliano 19-01-2021 06:00 -4.8 86.1 0 0.4 134
Savigliano 19-01-2021 07:00 -5.8 87.2 0 0.4 172
Savigliano 19-01-2021 08:00 -5.1 86.4 0 0.4 174
Savigliano 19-01-2021 09:00 -3.4 82.5 0 0.4 174
Savigliano 19-01-2021 10:00 -1.5 81 0 0 172
Savigliano 19-01-2021 11:00 1.6 73.8 0 1.4 281
Savigliano 19-01-2021 12:00 1.9 71.7 0 3.2 250
Savigliano 19-01-2021 13:00 2 69.6 0 3.2 236
Savigliano 19-01-2021 14:00 4.3 61.4 0 2.2 304
Savigliano 19-01-2021 15:00 4.9 58.2 0 2.2 290
Savigliano 19-01-2021 16:00 5.3 60.8 0 2.2 322
Savigliano 19-01-2021 17:00 3.5 69.6 0 0.4 339
Savigliano 19-01-2021 18:00 2.5 69.6 0 0 340
Savigliano 19-01-2021 19:00 1.5 77.8 0 0 343
Savigliano 19-01-2021 20:00 -0.7 78.1 0 0.4 328
Savigliano 19-01-2021 21:00 -0.7 81 0 1.1 231
Savigliano 19-01-2021 22:00 -1.6 82.6 0 1.1 160
Savigliano 19-01-2021 23:00 -2.2 82.7 0 0.7 160
Savigliano 20-01-2021 00:00 -3.7 83 0 0.7 160
Savigliano 20-01-2021 01:00 -3 85 0 0.7 157
Savigliano 20-01-2021 02:00 -3.4 88 0 0.4 151
Savigliano 20-01-2021 03:00 -3.5 85.9 0 0.7 173
Savigliano 20-01-2021 04:00 -3.6 84.9 0 0.7 176
Savigliano 20-01-2021 05:00 -3.4 85.4 0 1.1 194
Savigliano 20-01-2021 06:00 -3.6 85.8 0 1.4 176
Savigliano 20-01-2021 07:00 -3.5 85.3 0 0.7 158
Savigliano 20-01-2021 08:00 -4.2 87.3 0 1.1 169
Savigliano 20-01-2021 09:00 -3.2 86.7 0 1.1 153
Savigliano 20-01-2021 10:00 -2.9 84.9 0 1.1 166
Savigliano 20-01-2021 11:00 -0.7 83.6 0 2.5 139
Savigliano 20-01-2021 12:00 0.8 79.5 0 2.9 127
Savigliano 20-01-2021 13:00 3.5 71.1 0 2.9 123
Savigliano 20-01-2021 14:00 4.5 65.8 0 2.2 112
Savigliano 20-01-2021 15:00 4.3 70.6 0 2.5 72
Savigliano 20-01-2021 16:00 4.4 72.8 0 1.8 283
Savigliano 20-01-2021 17:00 4 76.1 0 1.1 340
Savigliano 20-01-2021 18:00 2.5 76.5 0 0.4 274
Savigliano 20-01-2021 19:00 1.9 78.1 0 0 271
Savigliano 20-01-2021 20:00 1.8 84.2 0 0 271
Savigliano 20-01-2021 21:00 1.3 83.8 0 0 272
Savigliano 20-01-2021 22:00 -0.3 84.7 0 0 272
Savigliano 20-01-2021 23:00 1.4 85.7 0 0 272
Savigliano 21-01-2021 00:00 1.7 83.3 0 0 271
Savigliano 21-01-2021 01:00 1.7 84.5 0 0.4 271
Savigliano 21-01-2021 02:00 0.9 83.5 0 0.7 287
Savigliano 21-01-2021 03:00 -0.3 86.8 0 0.4 284
Savigliano 21-01-2021 04:00 -0.2 89.1 0 0 283
Savigliano 21-01-2021 05:00 -0.6 89 0 1.1 262
Savigliano 21-01-2021 06:00 -0.8 88.8 0 0.7 177
Savigliano 21-01-2021 07:00 -0.8 89.3 0 0.7 181
Savigliano 21-01-2021 08:00 -0.7 89.8 0 0.4 183
Savigliano 21-01-2021 09:00 -0.9 91.9 0 0.4 169
Savigliano 21-01-2021 10:00 -0.2 92.9 0 0.7 168
Savigliano 21-01-2021 11:00 1.9 89.9 0 0.7 172
Savigliano 21-01-2021 12:00 3 83.5 0 1.4 154
Savigliano 21-01-2021 13:00 4.4 78.3 0 1.1 92
Savigliano 21-01-2021 14:00 4.3 78.7 0 1.4 72
Savigliano 21-01-2021 15:00 4.6 76.7 0 2.2 127
Savigliano 21-01-2021 16:00 4.5 78.3 0 2.9 163
Savigliano 21-01-2021 17:00 4.6 79.7 0 2.9 297
Savigliano 21-01-2021 18:00 3.8 84.3 0 1.4 340
Savigliano 21-01-2021 19:00 2.4 83.2 0 1.8 333
Savigliano 21-01-2021 20:00 1.9 85.3 0 0.4 336
Savigliano 21-01-2021 21:00 1.7 89.1 0 0.4 315
Savigliano 21-01-2021 22:00 1.4 89.5 0 0.4 127
Savigliano 21-01-2021 23:00 1.4 88.5 0 0 146
Savigliano 22-01-2021 00:00 1.5 88.9 0 0 175
Savigliano 22-01-2021 01:00 1.4 88.9 0 0 271
Savigliano 22-01-2021 02:00 1.6 88.5 0 1.1 202
Savigliano 22-01-2021 03:00 2.4 89.2 0 0 142
Savigliano 22-01-2021 04:00 2.4 90 0 0 142
Savigliano 22-01-2021 05:00 2.3 90.4 0 0 142
Savigliano 22-01-2021 06:00 2.1 92.5 0 0.4 96
Savigliano 22-01-2021 07:00 2.1 93.8 0 0 12
Savigliano 22-01-2021 08:00 2 94 0 0 12
Savigliano 22-01-2021 09:00 2.1 93.7 0 0.4 13
Savigliano 22-01-2021 10:00 1.7 89.9 0 0.4 286
Savigliano 22-01-2021 11:00 1.7 88.8 0 0.4 342
Savigliano 22-01-2021 12:00 1.8 89.1 0 0.4 292
Savigliano 22-01-2021 13:00 2 90.2 0 2.2 205
Savigliano 22-01-2021 14:00 1.8 89.1 0 1.8 177
Savigliano 22-01-2021 15:00 1.8 90.3 0 1.8 177
Savigliano 22-01-2021 16:00 1.1 93 0.1 6.1 222
Savigliano 22-01-2021 17:00 -1 93.8 0.2 2.9 227
Savigliano 22-01-2021 18:00 -0.9 94.3 0.2 0.7 255
Savigliano 22-01-2021 19:00 -1.1 94.6 0.3 1.1 267
Savigliano 22-01-2021 20:00 -1.2 94.9 0.6 0.7 275
Savigliano 22-01-2021 21:00 -1.1 92.9 0.4 0 274
Savigliano 22-01-2021 22:00 -1.1 92.8 0.2 0 274
Savigliano 22-01-2021 23:00 -1.1 92.9 0 0.4 273
Savigliano 23-01-2021 00:00 -1 93 0 0 273
Savigliano 23-01-2021 01:00 -0.8 93.1 0 0.4 272
Savigliano 23-01-2021 02:00 -0.6 93.3 0 1.4 264
Savigliano 23-01-2021 03:00 -0.5 93.3 0 1.8 187
Savigliano 23-01-2021 04:00 -0.3 93.3 0 2.2 177
Savigliano 23-01-2021 05:00 0.5 93.5 0 2.2 168
Savigliano 23-01-2021 06:00 0.8 94.7 0.1 2.9 172
Savigliano 23-01-2021 07:00 0.7 94.3 0 1.8 152
Savigliano 23-01-2021 08:00 1.4 93.9 0 2.5 140
Savigliano 23-01-2021 09:00 1.6 91.6 0 2.9 159
Savigliano 23-01-2021 10:00 1.9 89.4 0 3.6 156
Savigliano 22-01-2021 13:05 0 0 0.1 0 0
Savigliano 22-01-2021 13:10 0 0 0.1 0 0
Savigliano 22-01-2021 13:15 0 0 0.1 0 0
Savigliano 22-01-2021 13:25 0 0 0.2 0 0
Savigliano 22-01-2021 13:30 0 0 0.1 0 0
Savigliano 22-01-2021 13:35 0 0 0.1 0 0
Savigliano 22-01-2021 14:30 0 0 0.1 0 0
Savigliano 22-01-2021 14:35 0 0 0.1 0 0
Savigliano 22-01-2021 14:50 0 0 0.1 0 0
Savigliano 22-01-2021 15:05 0 0 0.1 0 0
Savigliano 22-01-2021 15:15 0 0 0.2 0 0
Savigliano 22-01-2021 15:20 0 0 0.3 0 0
Savigliano 22-01-2021 15:25 0 0 0.2 0 0
Savigliano 22-01-2021 15:30 0 0 0.2 0 0
Savigliano 22-01-2021 15:35 0 0 0.2 0 0
Savigliano 22-01-2021 15:40 0 0 0.1 0 0
Savigliano 22-01-2021 15:45 0 0 0.1 0 0
Savigliano 22-01-2021 16:05 0 0 0.1 0 0
Savigliano 22-01-2021 16:10 0 0 0.2 0 0
Savigliano 22-01-2021 16:15 0 0 0.5 0 0
Savigliano 22-01-2021 16:20 0 0 1.3 0 0
Savigliano 22-01-2021 16:25 0 0 0.5 0 0
Savigliano 22-01-2021 16:30 0 0 0.4 0 0
Savigliano 22-01-2021 16:35 0 0 0.2 0 0
Savigliano 22-01-2021 16:40 0 0 0.6 0 0
Savigliano 22-01-2021 16:45 0 0 0.2 0 0
Savigliano 22-01-2021 16:50 0 0 0.3 0 0
Savigliano 22-01-2021 16:55 0 0 0.5 0 0
Savigliano 22-01-2021 17:05 0 0 0.3 0 0
Savigliano 22-01-2021 17:10 0 0 0.2 0 0
Savigliano 22-01-2021 17:15 0 0 0.1 0 0
Savigliano 22-01-2021 17:40 0 0 0.2 0 0
Savigliano 22-01-2021 17:45 0 0 0.2 0 0
Savigliano 22-01-2021 17:50 0 0 0.2 0 0
Savigliano 22-01-2021 17:55 0 0 0.2 0 0
Savigliano 22-01-2021 18:05 0 0 0.2 0 0
Savigliano 22-01-2021 18:10 0 0 0.2 0 0
Savigliano 22-01-2021 18:15 0 0 0.1 0 0
Savigliano 22-01-2021 18:20 0 0 0.2 0 0
Savigliano 22-01-2021 18:25 0 0 0.2 0 0
Savigliano 22-01-2021 18:30 0 0 0.2 0 0
Savigliano 22-01-2021 18:35 0 0 0.4 0 0
Savigliano 22-01-2021 18:40 0 0 0.3 0 0
Savigliano 22-01-2021 18:45 0 0 0.4 0 0
Savigliano 22-01-2021 18:50 0 0 0.3 0 0
Savigliano 22-01-2021 18:55 0 0 0.3 0 0
Savigliano 22-01-2021 19:05 0 0 0.2 0 0
Savigliano 22-01-2021 19:10 0 0 0.1 0 0
Savigliano 22-01-2021 19:15 0 0 1 0 0
Savigliano 22-01-2021 19:20 0 0 0.4 0 0
Savigliano 22-01-2021 19:25 0 0 0.6 0 0
Savigliano 22-01-2021 19:30 0 0 0.4 0 0
Savigliano 22-01-2021 19:35 0 0 0.1 0 0
Savigliano 22-01-2021 19:40 0 0 0.1 0 0
Savigliano 22-01-2021 19:45 0 0 0.2 0 0
Savigliano 22-01-2021 19:50 0 0 0.5 0 0
Savigliano 22-01-2021 19:55 0 0 0.5 0 0
Savigliano 22-01-2021 20:05 0 0 0.4 0 0
Savigliano 22-01-2021 20:10 0 0 0.7 0 0
Savigliano 22-01-2021 20:15 0 0 0.4 0 0
Savigliano 22-01-2021 20:20 0 0 0.4 0 0
Savigliano 22-01-2021 20:25 0 0 0.8 0 0
Savigliano 22-01-2021 20:30 0 0 0.5 0 0
Savigliano 22-01-2021 20:35 0 0 0.4 0 0
Savigliano 22-01-2021 20:40 0 0 0.5 0 0
Savigliano 22-01-2021 20:45 0 0 0.5 0 0
Savigliano 22-01-2021 20:50 0 0 0.2 0 0
Savigliano 22-01-2021 20:55 0 0 0.4 0 0
Savigliano 22-01-2021 21:05 0 0 0.3 0 0
Savigliano 22-01-2021 21:10 0 0 0.2 0 0
Savigliano 22-01-2021 21:15 0 0 0.1 0 0
Savigliano 22-01-2021 21:20 0 0 0.1 0 0
Savigliano 22-01-2021 21:25 0 0 0.1 0 0
Savigliano 22-01-2021 21:30 0 0 0.1 0 0
Savigliano 22-01-2021 21:35 0 0 0.1 0 0
Savigliano 22-01-2021 21:40 0 0 0.2 0 0
Savigliano 22-01-2021 21:45 0 0 0.2 0 0
Savigliano 22-01-2021 21:50 0 0 0.2 0 0
Savigliano 22-01-2021 21:55 0 0 0.1 0 0
Savigliano 22-01-2021 22:05 0 0 0.1 0 0
Savigliano 22-01-2021 22:10 0 0 0.1 0 0
Savigliano 22-01-2021 22:15 0 0 0.1 0 0
Savigliano 22-01-2021 22:20 0 0 0.1 0 0
Savigliano 22-01-2021 22:25 0 0 0.1 0 0
Savigliano 22-01-2021 22:30 0 0 0.1 0 0
Savigliano 22-01-2021 22:35 0 0 0.2 0 0
Savigliano 22-01-2021 22:40 0 0 0.1 0 0
Savigliano 22-01-2021 22:45 0 0 0.1 0 0
Savigliano 22-01-2021 22:55 0 0 0.1 0 0
Savigliano 22-01-2021 23:05 0 0 0.1 0 0
Savigliano 22-01-2021 23:10 0 0 0.1 0 0
Savigliano 22-01-2021 23:15 0 0 0.1 0 0
Savigliano 22-01-2021 23:25 0 0 0.1 0 0
Savigliano 22-01-2021 23:30 0 0 0.1 0 0
Savigliano 22-01-2021 23:35 0 0 0.1 0 0
Savigliano 22-01-2021 23:40 0 0 0.1 0 0
Savigliano 22-01-2021 23:45 0 0 0.1 0 0
Savigliano 22-01-2021 23:50 0 0 0.1 0 0
Savigliano 22-01-2021 23:55 0 0 0.1 0 0
Savigliano 23-01-2021 00:05 0 0 0.1 0 0
Savigliano 23-01-2021 00:15 0 0 0.1 0 0
Savigliano 23-01-2021 00:20 0 0 0.1 0 0
Savigliano 23-01-2021 00:25 0 0 0.1 0 0
Savigliano 23-01-2021 00:35 0 0 0.1 0 0
Savigliano 23-01-2021 00:40 0 0 0.1 0 0
Savigliano 23-01-2021 00:55 0 0 0.1 0 0
Savigliano 23-01-2021 01:05 0 0 0.1 0 0

Riassuntivo giornaliero del 23-01-2021